Time;durP1;ratioP1;P1;durP2;ratioP2;P2;SDS_P1;SDS_P2;PMS_P1;PMS_P2;Temp;Humidity;BMP_temperature;BMP_pressure;BME280_temperature;BME280_humidity;BME280_pressure;Samples;Min_cycle;Max_cycle;Signal;HPM_P1;HPM_P2
2022/01/26 00:00:07;;;;;;;;;;;22.00;27.40;;;;;;467578;255;1359;-61
2022/01/26 00:06:47;;;;;;;;;;;22.00;27.50;;;;;;467686;255;2192;-61
2022/01/26 00:08:48;;;;;;;;;;;22.00;27.40;;;;;;467681;255;1334;-61
2022/01/26 00:10:49;;;;;;;;;;;22.10;27.40;;;;;;467755;255;1221;-61
2022/01/26 00:12:51;;;;;;;;;;;22.10;27.30;;;;;;467834;255;1154;-61
2022/01/26 00:14:52;;;;;;;;;;;22.10;27.40;;;;;;467819;255;983;-61
2022/01/26 00:16:53;;;;;;;;;;;22.00;27.50;;;;;;467720;255;1223;-61
2022/01/26 00:18:58;;;;;;;;;;;22.00;27.50;;;;;;467816;255;1099;-61
2022/01/26 00:21:03;;;;;;;;;;;22.00;27.50;;;;;;467637;255;1482;-61
2022/01/26 00:23:10;;;;;;;;;;;22.00;27.50;;;;;;467319;255;1827;-61
2022/01/26 00:25:20;;;;;;;;;;;22.00;27.60;;;;;;467251;255;2177;-61
2022/01/26 00:27:28;;;;;;;;;;;22.00;27.50;;;;;;466709;255;2196;-62
2022/01/26 00:29:22;;;;;;;;;;;22.00;27.50;;;;;;467280;255;1316;-61
2022/01/26 00:38:36;;;;;;;;;;;22.10;27.50;;;;;;467856;255;1124;-61
2022/01/26 00:40:39;;;;;;;;;;;22.00;27.50;;;;;;467635;255;2513;-61
2022/01/26 00:42:39;;;;;;;;;;;21.90;27.60;;;;;;467551;254;1322;-61
2022/01/26 00:44:43;;;;;;;;;;;21.80;27.70;;;;;;467630;255;1695;-61
2022/01/26 00:46:47;;;;;;;;;;;21.70;27.80;;;;;;467408;255;1752;-62
2022/01/26 00:48:41;;;;;;;;;;;21.60;27.80;;;;;;467236;255;2129;-61
2022/01/26 00:50:49;;;;;;;;;;;21.60;27.90;;;;;;467678;255;1609;-61
2022/01/26 00:52:45;;;;;;;;;;;21.50;28.00;;;;;;467240;255;1423;-61
2022/01/26 00:54:44;;;;;;;;;;;21.50;28.00;;;;;;467568;255;1411;-61
2022/01/26 00:56:46;;;;;;;;;;;21.50;28.00;;;;;;467719;255;1336;-62
2022/01/26 00:58:47;;;;;;;;;;;21.50;28.00;;;;;;467769;255;1162;-61
2022/01/26 01:00:48;;;;;;;;;;;21.40;28.00;;;;;;467854;255;1169;-62
2022/01/26 01:02:50;;;;;;;;;;;21.40;28.00;;;;;;467803;255;1110;-61
2022/01/26 01:04:51;;;;;;;;;;;21.50;28.00;;;;;;467793;255;955;-61
2022/01/26 01:06:57;;;;;;;;;;;21.50;28.00;;;;;;467653;255;1269;-61
2022/01/26 01:08:56;;;;;;;;;;;21.50;28.00;;;;;;467463;255;2204;-61
2022/01/26 01:10:56;;;;;;;;;;;21.50;28.00;;;;;;467638;255;1485;-61
2022/01/26 01:12:59;;;;;;;;;;;21.40;28.00;;;;;;467698;255;1186;-61
2022/01/26 01:14:59;;;;;;;;;;;21.40;28.00;;;;;;467672;255;1393;-61
2022/01/26 01:17:03;;;;;;;;;;;21.30;28.00;;;;;;467744;255;1407;-61
2022/01/26 01:19:07;;;;;;;;;;;21.40;28.10;;;;;;467575;255;1387;-61
2022/01/26 01:21:37;;;;;;;;;;;21.30;28.10;;;;;;467370;255;2007;-61
2022/01/26 01:23:37;;;;;;;;;;;21.30;28.10;;;;;;466359;255;1534;-61
2022/01/26 01:26:05;;;;;;;;;;;21.30;28.10;;;;;;466963;255;1336;-61
2022/01/26 01:28:09;;;;;;;;;;;21.30;28.10;;;;;;466425;255;2199;-61
2022/01/26 01:30:06;;;;;;;;;;;21.30;28.10;;;;;;466839;255;1892;-61
2022/01/26 01:32:10;;;;;;;;;;;21.30;28.10;;;;;;467344;255;1388;-61
2022/01/26 01:34:03;;;;;;;;;;;21.30;28.10;;;;;;467256;255;1378;-61
2022/01/26 01:36:05;;;;;;;;;;;21.30;28.20;;;;;;467682;255;1159;-61
2022/01/26 01:38:10;;;;;;;;;;;21.30;28.10;;;;;;467739;255;1611;-61
2022/01/26 01:40:10;;;;;;;;;;;21.30;28.10;;;;;;467727;255;1518;-61
2022/01/26 01:42:12;;;;;;;;;;;21.30;28.10;;;;;;467748;255;1215;-61
2022/01/26 01:44:13;;;;;;;;;;;21.30;28.20;;;;;;467817;255;1144;-61
2022/01/26 01:46:14;;;;;;;;;;;21.20;28.20;;;;;;467734;255;1252;-61
2022/01/26 01:48:18;;;;;;;;;;;21.30;28.20;;;;;;467811;255;2199;-62
2022/01/26 01:50:17;;;;;;;;;;;21.20;28.20;;;;;;467624;255;1585;-61
2022/01/26 01:52:19;;;;;;;;;;;21.20;28.20;;;;;;467716;255;1243;-61
2022/01/26 01:54:20;;;;;;;;;;;21.20;28.20;;;;;;467825;255;979;-61
2022/01/26 01:56:23;;;;;;;;;;;21.40;28.00;;;;;;467749;251;1199;-61
2022/01/26 01:58:22;;;;;;;;;;;21.20;28.10;;;;;;467557;255;1622;-61
2022/01/26 02:00:24;;;;;;;;;;;21.10;28.20;;;;;;467773;255;973;-61
2022/01/26 02:02:25;;;;;;;;;;;21.10;28.20;;;;;;467666;255;1163;-61
2022/01/26 02:04:26;;;;;;;;;;;21.20;28.20;;;;;;467887;255;1051;-61
2022/01/26 02:06:28;;;;;;;;;;;21.20;28.20;;;;;;467712;255;1333;-61
2022/01/26 02:08:29;;;;;;;;;;;21.20;28.10;;;;;;467795;255;2145;-61
2022/01/26 02:10:32;;;;;;;;;;;21.10;28.10;;;;;;467746;255;1214;-61
2022/01/26 02:12:34;;;;;;;;;;;21.20;28.20;;;;;;467617;255;1899;-61
2022/01/26 02:14:38;;;;;;;;;;;21.20;28.20;;;;;;467566;255;1395;-61
2022/01/26 02:16:43;;;;;;;;;;;21.10;28.10;;;;;;467380;254;1415;-61
2022/01/26 02:18:50;;;;;;;;;;;21.10;28.20;;;;;;467253;255;1373;-61
2022/01/26 02:21:02;;;;;;;;;;;21.10;28.20;;;;;;466935;255;1430;-61
2022/01/26 02:53:30;;;;;;;;;;;21.40;27.80;;;;;;467813;255;1232;-62
2022/01/26 02:55:36;;;;;;;;;;;21.50;27.80;;;;;;467268;254;1511;-61
2022/01/26 02:57:46;;;;;;;;;;;21.60;27.80;;;;;;467502;255;1372;-61
2022/01/26 03:00:09;;;;;;;;;;;21.60;27.70;;;;;;467226;255;1557;-61
2022/01/26 03:01:59;;;;;;;;;;;21.50;27.70;;;;;;466754;255;1626;-62
2022/01/26 03:04:05;;;;;;;;;;;21.50;27.60;;;;;;467582;255;1979;-63
2022/01/26 03:06:03;;;;;;;;;;;21.60;27.60;;;;;;467149;255;2198;-61
2022/01/26 03:08:04;;;;;;;;;;;21.60;27.60;;;;;;467441;255;2197;-62
2022/01/26 03:10:06;;;;;;;;;;;21.60;27.60;;;;;;467589;255;1544;-61
2022/01/26 03:12:05;;;;;;;;;;;21.60;27.60;;;;;;467361;255;1347;-61
2022/01/26 03:14:13;;;;;;;;;;;21.60;27.50;;;;;;467592;255;1382;-61
2022/01/26 03:16:11;;;;;;;;;;;21.60;27.60;;;;;;467100;250;1390;-61
2022/01/26 03:20:39;;;;;;;;;;;21.60;27.60;;;;;;461563;255;1168;-61
2022/01/26 03:29:55;;;;;;;;;;;21.60;27.50;;;;;;467659;255;2180;-61
2022/01/26 03:34:12;;;;;;;;;;;21.70;27.50;;;;;;456958;255;1182;-61
2022/01/26 03:36:13;;;;;;;;;;;21.70;27.50;;;;;;467556;254;1264;-61
2022/01/26 03:38:22;;;;;;;;;;;21.70;27.50;;;;;;467634;255;2324;-61
2022/01/26 03:40:15;;;;;;;;;;;21.70;27.50;;;;;;467200;255;1443;-61
2022/01/26 03:42:16;;;;;;;;;;;21.70;27.50;;;;;;467696;255;1074;-61
2022/01/26 03:44:18;;;;;;;;;;;21.60;27.50;;;;;;467838;255;1160;-61
2022/01/26 03:46:19;;;;;;;;;;;21.70;27.50;;;;;;467717;255;1241;-61
2022/01/26 03:48:20;;;;;;;;;;;21.70;27.50;;;;;;467764;255;2129;-61
2022/01/26 03:50:22;;;;;;;;;;;21.70;27.50;;;;;;467870;255;1133;-61
2022/01/26 03:52:23;;;;;;;;;;;21.70;27.50;;;;;;467694;255;1151;-61
2022/01/26 03:54:24;;;;;;;;;;;21.70;27.40;;;;;;467850;255;1230;-61
2022/01/26 03:56:26;;;;;;;;;;;21.80;27.40;;;;;;467785;255;1224;-61
2022/01/26 03:58:27;;;;;;;;;;;21.70;27.40;;;;;;467861;255;1174;-61
2022/01/26 04:00:28;;;;;;;;;;;21.70;27.40;;;;;;467835;255;1116;-61
2022/01/26 04:02:30;;;;;;;;;;;21.70;27.40;;;;;;467705;255;1277;-61
2022/01/26 04:04:36;;;;;;;;;;;21.70;27.40;;;;;;467915;255;1061;-61
2022/01/26 04:06:33;;;;;;;;;;;21.70;27.40;;;;;;467444;255;1607;-61
2022/01/26 04:08:35;;;;;;;;;;;21.70;27.40;;;;;;467744;255;2421;-61
2022/01/26 04:10:45;;;;;;;;;;;21.70;27.50;;;;;;467622;255;1864;-62
2022/01/26 04:12:38;;;;;;;;;;;21.70;27.40;;;;;;466976;255;1527;-61
2022/01/26 04:14:38;;;;;;;;;;;21.70;27.40;;;;;;467705;255;1415;-61
2022/01/26 04:16:39;;;;;;;;;;;21.70;27.40;;;;;;467723;255;1820;-62
2022/01/26 04:18:41;;;;;;;;;;;21.70;27.50;;;;;;467824;255;1070;-62
2022/01/26 04:20:46;;;;;;;;;;;21.70;27.40;;;;;;467701;255;1391;-61
2022/01/26 04:22:52;;;;;;;;;;;21.80;27.30;;;;;;467602;255;1297;-61
2022/01/26 04:24:52;;;;;;;;;;;21.70;27.40;;;;;;467566;255;1397;-61
2022/01/26 04:26:56;;;;;;;;;;;21.60;27.40;;;;;;467410;255;1601;-61
2022/01/26 04:28:57;;;;;;;;;;;21.60;27.40;;;;;;467428;255;2125;-61
2022/01/26 04:30:53;;;;;;;;;;;21.80;27.40;;;;;;467369;255;1492;-61
2022/01/26 04:32:59;;;;;;;;;;;21.80;27.40;;;;;;467772;255;1194;-61
2022/01/26 04:34:57;;;;;;;;;;;21.70;27.40;;;;;;467449;255;1381;-61
2022/01/26 04:37:03;;;;;;;;;;;21.70;27.40;;;;;;467648;255;1459;-61
2022/01/26 04:39:03;;;;;;;;;;;21.70;27.40;;;;;;467496;255;1865;-61
2022/01/26 04:41:12;;;;;;;;;;;21.70;27.40;;;;;;467471;255;1926;-61
2022/01/26 04:43:05;;;;;;;;;;;21.60;27.40;;;;;;467043;255;1373;-61
2022/01/26 04:45:07;;;;;;;;;;;21.60;27.50;;;;;;467518;255;1370;-61
2022/01/26 04:47:04;;;;;;;;;;;21.50;27.50;;;;;;467348;255;1406;-61
2022/01/26 04:49:05;;;;;;;;;;;21.40;27.50;;;;;;467733;255;2192;-63
2022/01/26 04:51:07;;;;;;;;;;;21.40;27.70;;;;;;467712;255;1306;-61
2022/01/26 04:53:08;;;;;;;;;;;21.30;27.70;;;;;;467762;255;1053;-61
2022/01/26 04:55:09;;;;;;;;;;;21.30;27.70;;;;;;467869;255;951;-61
2022/01/26 04:57:11;;;;;;;;;;;21.30;27.80;;;;;;467767;255;1209;-61
2022/01/26 04:59:12;;;;;;;;;;;21.30;27.80;;;;;;467798;255;1185;-61
2022/01/26 05:01:13;;;;;;;;;;;21.30;27.80;;;;;;467781;255;1177;-61
2022/01/26 05:03:14;;;;;;;;;;;21.20;27.80;;;;;;467800;255;1003;-61
2022/01/26 05:05:16;;;;;;;;;;;21.20;27.80;;;;;;467768;255;957;-61
2022/01/26 05:07:17;;;;;;;;;;;21.20;27.70;;;;;;467778;255;1076;-61
2022/01/26 05:09:20;;;;;;;;;;;21.10;27.80;;;;;;467912;255;2172;-60
2022/01/26 05:11:30;;;;;;;;;;;21.10;27.80;;;;;;467631;255;1386;-61
2022/01/26 05:13:22;;;;;;;;;;;21.10;27.90;;;;;;467105;255;1369;-61
2022/01/26 05:15:25;;;;;;;;;;;21.10;27.80;;;;;;467701;255;1351;-61
2022/01/26 05:17:25;;;;;;;;;;;21.10;27.90;;;;;;467662;255;2404;-61
2022/01/26 05:19:26;;;;;;;;;;;21.10;27.90;;;;;;467639;255;1063;-61
2022/01/26 05:21:28;;;;;;;;;;;21.10;27.80;;;;;;467634;255;1235;-61
2022/01/26 05:23:29;;;;;;;;;;;21.10;27.80;;;;;;467645;255;1228;-61
2022/01/26 05:25:30;;;;;;;;;;;21.10;27.80;;;;;;467657;255;1334;-61
2022/01/26 05:27:32;;;;;;;;;;;21.10;27.80;;;;;;467726;255;1167;-61
2022/01/26 05:29:33;;;;;;;;;;;21.10;27.80;;;;;;467763;255;2132;-61
2022/01/26 05:31:34;;;;;;;;;;;21.10;27.80;;;;;;467599;255;1210;-61
2022/01/26 05:33:36;;;;;;;;;;;21.10;27.80;;;;;;467632;255;1247;-61
2022/01/26 05:35:37;;;;;;;;;;;21.10;27.80;;;;;;467628;255;973;-61
2022/01/26 05:37:39;;;;;;;;;;;21.00;27.90;;;;;;467545;255;1176;-61
2022/01/26 05:39:40;;;;;;;;;;;21.10;27.70;;;;;;467609;255;1094;-61
2022/01/26 05:41:42;;;;;;;;;;;21.10;27.80;;;;;;467684;255;1324;-61
2022/01/26 05:43:43;;;;;;;;;;;21.10;27.80;;;;;;467660;255;2588;-62
2022/01/26 05:45:48;;;;;;;;;;;21.10;27.80;;;;;;467656;255;1145;-61
2022/01/26 05:47:46;;;;;;;;;;;21.10;27.80;;;;;;467215;255;1530;-61
2022/01/26 05:49:47;;;;;;;;;;;21.00;27.80;;;;;;467650;255;2129;-61
2022/01/26 05:51:50;;;;;;;;;;;21.00;27.80;;;;;;467443;255;1313;-61
2022/01/26 05:53:50;;;;;;;;;;;21.10;27.80;;;;;;467428;255;1494;-61
2022/01/26 05:55:51;;;;;;;;;;;21.10;27.80;;;;;;467461;255;1199;-61
2022/01/26 05:57:52;;;;;;;;;;;21.00;27.80;;;;;;467527;255;1190;-62
2022/01/26 05:59:55;;;;;;;;;;;21.00;27.80;;;;;;467628;255;1063;-61
2022/01/26 06:01:57;;;;;;;;;;;21.00;27.80;;;;;;467384;255;1974;-61
2022/01/26 06:03:57;;;;;;;;;;;20.90;27.90;;;;;;467425;255;1972;-61
2022/01/26 06:05:58;;;;;;;;;;;21.00;27.80;;;;;;467589;255;1386;-61
2022/01/26 06:08:00;;;;;;;;;;;21.00;27.80;;;;;;467557;255;1185;-61
2022/01/26 06:10:01;;;;;;;;;;;21.00;27.80;;;;;;467532;255;2164;-61
2022/01/26 06:12:02;;;;;;;;;;;21.00;27.80;;;;;;467397;255;1220;-61
2022/01/26 06:14:03;;;;;;;;;;;21.00;27.80;;;;;;467433;255;1246;-61
2022/01/26 06:16:05;;;;;;;;;;;21.00;27.70;;;;;;467451;255;1197;-61
2022/01/26 06:18:06;;;;;;;;;;;21.00;27.70;;;;;;467388;255;1109;-61
2022/01/26 06:20:07;;;;;;;;;;;21.00;27.70;;;;;;467332;255;1013;-61
2022/01/26 06:22:09;;;;;;;;;;;21.00;27.70;;;;;;467368;255;1140;-61
2022/01/26 06:24:10;;;;;;;;;;;21.00;27.70;;;;;;467427;255;1208;-61
2022/01/26 06:26:11;;;;;;;;;;;21.00;27.70;;;;;;467429;255;1059;-61
2022/01/26 06:28:15;;;;;;;;;;;21.00;27.70;;;;;;467483;255;1097;-61
2022/01/26 06:30:14;;;;;;;;;;;21.00;27.70;;;;;;467274;255;2215;-61
2022/01/26 06:32:17;;;;;;;;;;;21.00;27.70;;;;;;467414;255;1274;-61
2022/01/26 06:34:17;;;;;;;;;;;21.00;27.70;;;;;;467366;255;1678;-61
2022/01/26 06:36:19;;;;;;;;;;;21.00;27.70;;;;;;467266;255;1178;-61
2022/01/26 06:38:20;;;;;;;;;;;21.10;27.70;;;;;;467477;255;1122;-61
2022/01/26 06:40:23;;;;;;;;;;;21.10;27.60;;;;;;467344;255;1242;-61
2022/01/26 06:42:27;;;;;;;;;;;21.20;27.50;;;;;;467342;255;1466;-61
2022/01/26 06:44:28;;;;;;;;;;;21.20;27.40;;;;;;467048;255;1869;-61
2022/01/26 06:46:32;;;;;;;;;;;21.30;27.40;;;;;;467112;255;1244;-61
2022/01/26 06:48:46;;;;;;;;;;;21.30;27.30;;;;;;467009;255;2406;-62
2022/01/26 06:50:42;;;;;;;;;;;21.40;27.20;;;;;;467060;255;2133;-61
2022/01/26 06:52:46;;;;;;;;;;;21.40;27.20;;;;;;467294;254;1181;-62
2022/01/26 06:54:45;;;;;;;;;;;21.30;27.30;;;;;;467161;255;2389;-61
2022/01/26 06:56:46;;;;;;;;;;;21.40;27.30;;;;;;467297;255;1242;-61
2022/01/26 06:58:47;;;;;;;;;;;21.50;27.20;;;;;;467423;255;1228;-61
2022/01/26 07:00:49;;;;;;;;;;;21.50;27.20;;;;;;467297;255;1241;-61
2022/01/26 07:02:52;;;;;;;;;;;21.40;27.20;;;;;;467187;254;1252;-61
2022/01/26 07:04:51;;;;;;;;;;;21.50;27.20;;;;;;467053;255;1258;-62
2022/01/26 07:06:53;;;;;;;;;;;21.50;27.10;;;;;;467198;255;1155;-61
2022/01/26 07:08:54;;;;;;;;;;;21.50;27.20;;;;;;467084;255;1417;-61
2022/01/26 07:10:55;;;;;;;;;;;21.50;27.20;;;;;;467213;255;2199;-61
2022/01/26 07:12:57;;;;;;;;;;;21.50;27.20;;;;;;467223;255;1260;-61
2022/01/26 07:19:54;;;;;;;;;;;21.50;27.20;;;;;;467308;255;1199;-62
2022/01/26 07:21:53;;;;;;;;;;;21.50;27.20;;;;;;467196;255;2199;-62
2022/01/26 07:23:55;;;;;;;;;;;21.60;27.10;;;;;;467346;255;1060;-61
2022/01/26 07:25:56;;;;;;;;;;;21.60;27.10;;;;;;467219;255;1104;-61
2022/01/26 07:27:58;;;;;;;;;;;21.50;27.20;;;;;;467236;255;1158;-61
2022/01/26 07:29:59;;;;;;;;;;;21.50;27.10;;;;;;467279;255;2200;-61
2022/01/26 07:32:03;;;;;;;;;;;21.50;27.20;;;;;;467080;255;1196;-62
2022/01/26 07:34:02;;;;;;;;;;;21.60;27.10;;;;;;466985;255;1925;-61
2022/01/26 07:36:03;;;;;;;;;;;21.60;27.00;;;;;;467209;255;1055;-61
2022/01/26 07:38:05;;;;;;;;;;;21.60;27.10;;;;;;467245;255;1204;-61
2022/01/26 07:40:06;;;;;;;;;;;21.60;27.00;;;;;;467217;255;1843;-61
2022/01/26 07:42:08;;;;;;;;;;;21.70;26.90;;;;;;467139;255;1158;-61
2022/01/26 07:44:09;;;;;;;;;;;21.70;26.90;;;;;;467056;255;1129;-61
2022/01/26 07:46:10;;;;;;;;;;;21.70;27.00;;;;;;467178;255;1317;-61
2022/01/26 07:48:12;;;;;;;;;;;21.60;27.00;;;;;;467065;255;1078;-61
2022/01/26 07:50:15;;;;;;;;;;;21.70;27.00;;;;;;467198;255;2199;-61
2022/01/26 07:52:15;;;;;;;;;;;21.60;27.00;;;;;;466942;255;1851;-61
2022/01/26 07:54:18;;;;;;;;;;;21.60;27.00;;;;;;466925;255;1093;-61
2022/01/26 07:56:18;;;;;;;;;;;21.60;27.10;;;;;;466860;255;1787;-61
2022/01/26 07:58:20;;;;;;;;;;;21.60;27.00;;;;;;467015;255;1293;-61
2022/01/26 08:00:20;;;;;;;;;;;21.70;26.90;;;;;;466817;255;2122;-61
2022/01/26 08:02:22;;;;;;;;;;;21.60;27.00;;;;;;467072;255;1148;-61
2022/01/26 08:04:23;;;;;;;;;;;21.60;27.10;;;;;;467136;255;1121;-61
2022/01/26 08:06:24;;;;;;;;;;;21.60;26.90;;;;;;466901;255;1214;-61
2022/01/26 08:08:27;;;;;;;;;;;21.70;26.80;;;;;;466866;255;1226;-61
2022/01/26 08:10:28;;;;;;;;;;;21.60;27.00;;;;;;466941;255;2132;-61
2022/01/26 08:12:29;;;;;;;;;;;21.60;27.00;;;;;;467051;255;1169;-61
2022/01/26 08:14:30;;;;;;;;;;;21.60;26.90;;;;;;467061;255;1155;-62
2022/01/26 08:16:31;;;;;;;;;;;21.70;26.90;;;;;;467002;255;1151;-61
2022/01/26 08:18:33;;;;;;;;;;;21.70;26.90;;;;;;467071;255;1050;-61
2022/01/26 08:20:34;;;;;;;;;;;21.60;26.90;;;;;;467048;255;1086;-61
2022/01/26 08:22:36;;;;;;;;;;;21.70;26.90;;;;;;467046;255;1307;-61
2022/01/26 08:24:39;;;;;;;;;;;21.70;26.80;;;;;;467022;255;1097;-62
2022/01/26 08:26:41;;;;;;;;;;;21.70;26.90;;;;;;466790;255;2117;-61
2022/01/26 08:28:42;;;;;;;;;;;21.60;27.00;;;;;;467304;255;2211;-61
2022/01/26 08:30:41;;;;;;;;;;;21.60;26.90;;;;;;467458;255;2196;-61
2022/01/26 08:32:42;;;;;;;;;;;21.60;26.90;;;;;;466863;255;2133;-61
2022/01/26 08:34:43;;;;;;;;;;;21.70;26.90;;;;;;466850;255;1121;-61
2022/01/26 08:36:45;;;;;;;;;;;21.60;26.90;;;;;;466904;255;1181;-61
2022/01/26 08:38:46;;;;;;;;;;;21.60;26.90;;;;;;467276;255;1033;-61
2022/01/26 08:40:49;;;;;;;;;;;21.70;26.90;;;;;;466921;255;1105;-61
2022/01/26 08:42:49;;;;;;;;;;;21.70;26.90;;;;;;467013;255;1390;-61
2022/01/26 08:44:50;;;;;;;;;;;21.70;26.90;;;;;;467075;255;1052;-61
2022/01/26 08:46:52;;;;;;;;;;;21.60;26.90;;;;;;466869;255;1182;-61
2022/01/26 08:48:53;;;;;;;;;;;21.50;26.90;;;;;;466953;255;1099;-61
2022/01/26 08:50:54;;;;;;;;;;;21.60;27.00;;;;;;466843;255;2183;-61
2022/01/26 08:52:55;;;;;;;;;;;21.80;26.70;;;;;;467326;255;1083;-61
2022/01/26 08:54:57;;;;;;;;;;;21.50;27.00;;;;;;467296;255;976;-61
2022/01/26 08:56:58;;;;;;;;;;;21.40;27.10;;;;;;467047;255;1214;-62
2022/01/26 08:58:59;;;;;;;;;;;21.40;27.10;;;;;;466462;255;1081;-61
2022/01/26 09:01:01;;;;;;;;;;;21.30;27.10;;;;;;466808;255;1265;-61
2022/01/26 09:03:02;;;;;;;;;;;21.40;27.10;;;;;;467150;255;1350;-61
2022/01/26 09:05:06;;;;;;;;;;;21.30;27.10;;;;;;466733;255;1090;-61
2022/01/26 09:07:05;;;;;;;;;;;21.30;27.10;;;;;;466929;255;2078;-61
2022/01/26 09:09:08;;;;;;;;;;;21.30;27.10;;;;;;467722;255;859;-61
2022/01/26 09:11:08;;;;;;;;;;;21.40;27.10;;;;;;467125;255;2205;-61
2022/01/26 09:13:10;;;;;;;;;;;21.30;27.10;;;;;;466906;255;1110;-61
2022/01/26 09:15:11;;;;;;;;;;;21.30;27.10;;;;;;466873;255;1179;-61
2022/01/26 09:17:12;;;;;;;;;;;21.30;27.10;;;;;;466897;255;1217;-61
2022/01/26 09:19:25;;;;;;;;;;;21.30;27.20;;;;;;466908;255;1125;-62
2022/01/26 09:21:15;;;;;;;;;;;21.30;27.20;;;;;;466213;255;2373;-61
2022/01/26 09:23:16;;;;;;;;;;;21.20;27.20;;;;;;467128;255;1168;-61
2022/01/26 09:25:17;;;;;;;;;;;21.30;27.20;;;;;;467152;255;1060;-61
2022/01/26 09:27:19;;;;;;;;;;;21.30;27.20;;;;;;466889;255;1222;-61
2022/01/26 09:29:20;;;;;;;;;;;21.30;27.20;;;;;;466917;255;1281;-61
2022/01/26 09:31:21;;;;;;;;;;;21.30;27.20;;;;;;466596;255;2130;-60
2022/01/26 09:33:23;;;;;;;;;;;21.30;27.20;;;;;;466695;255;1283;-61
2022/01/26 09:35:25;;;;;;;;;;;21.30;27.30;;;;;;467627;255;996;-60
2022/01/26 09:37:26;;;;;;;;;;;21.30;27.30;;;;;;466810;255;1056;-61
2022/01/26 09:39:27;;;;;;;;;;;21.20;27.30;;;;;;466911;255;1186;-61
2022/01/26 09:41:29;;;;;;;;;;;21.10;27.30;;;;;;466890;255;1279;-60
2022/01/26 09:43:30;;;;;;;;;;;21.20;27.30;;;;;;467005;255;1084;-61
2022/01/26 09:45:34;;;;;;;;;;;21.20;27.30;;;;;;466940;255;1322;-62
2022/01/26 09:47:33;;;;;;;;;;;21.20;27.30;;;;;;466680;255;1394;-61
2022/01/26 09:49:35;;;;;;;;;;;21.20;27.40;;;;;;467070;255;1176;-61
2022/01/26 09:51:40;;;;;;;;;;;21.20;27.30;;;;;;466814;255;2137;-61
2022/01/26 09:53:37;;;;;;;;;;;21.20;27.20;;;;;;466628;255;2099;-61
2022/01/26 09:55:38;;;;;;;;;;;21.20;27.30;;;;;;466870;255;1312;-62
2022/01/26 09:57:42;;;;;;;;;;;21.30;27.30;;;;;;466800;255;1112;-62
2022/01/26 09:59:41;;;;;;;;;;;21.20;27.30;;;;;;466796;255;1316;-63
2022/01/26 10:01:43;;;;;;;;;;;21.30;27.30;;;;;;466830;254;1335;-65
2022/01/26 10:03:45;;;;;;;;;;;21.20;27.30;;;;;;466817;255;1120;-61
2022/01/26 10:05:46;;;;;;;;;;;21.20;27.40;;;;;;466810;255;1436;-61
2022/01/26 10:07:51;;;;;;;;;;;21.20;27.40;;;;;;466892;255;1131;-61
2022/01/26 10:10:30;;;;;;;;;;;21.10;27.40;;;;;;466612;255;2123;-61
2022/01/26 10:17:24;;;;;;;;;;;21.20;27.30;;;;;;456076;255;1333;-61
2022/01/26 10:19:20;;;;;;;;;;;21.20;27.30;;;;;;466395;255;1801;-61
2022/01/26 10:21:21;;;;;;;;;;;21.10;27.40;;;;;;466659;255;1275;-61
2022/01/26 10:23:22;;;;;;;;;;;21.10;27.40;;;;;;466783;255;1324;-62
2022/01/26 10:25:24;;;;;;;;;;;21.20;27.40;;;;;;466753;255;1040;-61
2022/01/26 10:27:25;;;;;;;;;;;21.20;27.40;;;;;;466825;255;1248;-61
2022/01/26 10:29:27;;;;;;;;;;;21.10;27.50;;;;;;467159;255;1048;-61
2022/01/26 10:31:28;;;;;;;;;;;21.10;27.50;;;;;;466527;255;2196;-60
2022/01/26 10:33:29;;;;;;;;;;;21.10;27.40;;;;;;466719;255;1181;-61
2022/01/26 10:35:30;;;;;;;;;;;21.20;27.50;;;;;;466779;255;1203;-61
2022/01/26 10:37:32;;;;;;;;;;;21.10;27.40;;;;;;467001;255;1050;-61
2022/01/26 10:39:36;;;;;;;;;;;21.10;27.50;;;;;;466741;255;1260;-61
2022/01/26 10:41:34;;;;;;;;;;;21.20;27.40;;;;;;466549;255;1630;-61
2022/01/26 10:43:36;;;;;;;;;;;21.20;27.40;;;;;;466906;255;1051;-61
2022/01/26 10:45:44;;;;;;;;;;;21.20;27.40;;;;;;466923;255;1056;-61
2022/01/26 10:47:43;;;;;;;;;;;21.30;27.40;;;;;;466447;255;1438;-61
2022/01/26 10:50:06;;;;;;;;;;;21.30;27.30;;;;;;466643;255;1338;-61
2022/01/26 10:51:55;;;;;;;;;;;21.40;27.20;;;;;;465463;255;2196;-61
2022/01/26 10:53:57;;;;;;;;;;;21.40;27.20;;;;;;466792;255;1857;-61
2022/01/26 10:55:56;;;;;;;;;;;21.40;27.20;;;;;;466720;255;1527;-61
2022/01/26 10:57:57;;;;;;;;;;;21.50;27.10;;;;;;467015;251;1327;-61
2022/01/26 10:59:59;;;;;;;;;;;21.60;27.10;;;;;;466985;255;1132;-61
2022/01/26 11:02:00;;;;;;;;;;;21.60;27.20;;;;;;466844;255;1861;-60
2022/01/26 11:04:01;;;;;;;;;;;21.60;27.20;;;;;;466927;255;1507;-61
2022/01/26 11:06:03;;;;;;;;;;;21.60;27.10;;;;;;466874;255;1216;-61
2022/01/26 11:08:04;;;;;;;;;;;21.70;27.20;;;;;;466931;255;1250;-61
2022/01/26 11:10:05;;;;;;;;;;;21.70;27.20;;;;;;466979;255;1225;-60
2022/01/26 11:12:06;;;;;;;;;;;21.70;27.20;;;;;;466935;255;2204;-61
2022/01/26 11:14:08;;;;;;;;;;;21.70;27.20;;;;;;467066;255;1069;-61
2022/01/26 11:16:09;;;;;;;;;;;21.80;27.20;;;;;;466968;255;1149;-61
2022/01/26 11:18:11;;;;;;;;;;;21.70;27.20;;;;;;466917;255;1223;-61
2022/01/26 11:20:12;;;;;;;;;;;21.70;27.30;;;;;;466588;255;1629;-61
2022/01/26 11:22:14;;;;;;;;;;;21.60;27.30;;;;;;467001;255;1200;-61
2022/01/26 11:24:14;;;;;;;;;;;21.70;27.30;;;;;;467020;255;1652;-62
2022/01/26 11:26:16;;;;;;;;;;;21.80;27.20;;;;;;466944;255;1178;-61
2022/01/26 11:28:17;;;;;;;;;;;21.70;27.30;;;;;;466904;255;1208;-62
2022/01/26 11:30:18;;;;;;;;;;;21.70;27.30;;;;;;466892;255;1018;-60
2022/01/26 11:32:24;;;;;;;;;;;21.70;27.20;;;;;;466979;255;2145;-61
2022/01/26 11:34:21;;;;;;;;;;;21.70;27.20;;;;;;466578;255;2224;-61
2022/01/26 11:36:22;;;;;;;;;;;21.70;27.30;;;;;;466966;255;1450;-61
2022/01/26 11:39:14;;;;;;;;;;;21.80;27.40;;;;;;466848;255;1054;-61
2022/01/26 11:45:25;;;;;;;;;;;21.90;27.50;;;;;;466934;255;979;-61
2022/01/26 11:47:24;;;;;;;;;;;21.90;27.60;;;;;;466617;255;2335;-61
2022/01/26 11:49:25;;;;;;;;;;;22.00;27.60;;;;;;467005;255;2218;-61
2022/01/26 11:51:26;;;;;;;;;;;22.00;27.50;;;;;;466953;255;2133;-61
2022/01/26 11:53:27;;;;;;;;;;;22.00;27.40;;;;;;467026;255;1060;-61
2022/01/26 11:55:32;;;;;;;;;;;22.00;27.50;;;;;;467031;255;1231;-61
2022/01/26 11:57:30;;;;;;;;;;;22.00;27.40;;;;;;466800;255;1255;-61
2022/01/26 11:59:34;;;;;;;;;;;22.00;27.30;;;;;;467232;255;855;-61
2022/01/26 12:01:33;;;;;;;;;;;22.10;27.30;;;;;;467116;255;1392;-61
2022/01/26 12:03:36;;;;;;;;;;;22.10;27.30;;;;;;467235;255;1139;-61
2022/01/26 12:05:36;;;;;;;;;;;22.10;27.30;;;;;;466789;255;2182;-61
2022/01/26 12:07:37;;;;;;;;;;;22.20;27.20;;;;;;467291;255;1531;-61
2022/01/26 12:09:38;;;;;;;;;;;22.10;27.30;;;;;;467446;255;817;-61
2022/01/26 12:11:39;;;;;;;;;;;22.10;27.30;;;;;;467279;255;2204;-61
2022/01/26 12:13:41;;;;;;;;;;;22.10;27.30;;;;;;466996;255;1308;-60
2022/01/26 12:15:45;;;;;;;;;;;22.10;27.20;;;;;;466838;255;1080;-61
2022/01/26 12:17:50;;;;;;;;;;;22.10;27.40;;;;;;466615;255;1423;-61
2022/01/26 12:19:53;;;;;;;;;;;22.10;27.30;;;;;;466483;255;2202;-61
2022/01/26 12:34:19;;;;;;;;;;;22.30;27.10;;;;;;466764;255;1170;-61
2022/01/26 12:35:53;;;;;;;;;;;22.30;27.10;;;;;;465199;255;1494;-61
2022/01/26 12:38:01;;;;;;;;;;;22.20;27.10;;;;;;466611;255;1924;-61
2022/01/26 12:42:37;;;;;;;;;;;22.20;27.20;;;;;;466777;255;1262;-61
2022/01/26 12:44:20;;;;;;;;;;;22.10;27.20;;;;;;465722;255;2050;-61
2022/01/26 12:46:21;;;;;;;;;;;22.10;27.30;;;;;;466742;254;1385;-61
2022/01/26 12:48:23;;;;;;;;;;;22.10;27.20;;;;;;466873;255;1094;-61
2022/01/26 12:50:24;;;;;;;;;;;22.10;27.10;;;;;;466807;255;1332;-61
2022/01/26 12:52:26;;;;;;;;;;;22.10;27.20;;;;;;466889;255;2209;-61
2022/01/26 12:54:27;;;;;;;;;;;22.10;27.20;;;;;;466983;255;1375;-61
2022/01/26 12:56:28;;;;;;;;;;;22.00;27.30;;;;;;466903;255;1214;-61
2022/01/26 12:58:29;;;;;;;;;;;21.90;27.40;;;;;;467211;255;1078;-61
2022/01/26 13:00:31;;;;;;;;;;;22.10;27.10;;;;;;466815;255;1209;-61
2022/01/26 13:02:32;;;;;;;;;;;21.90;27.40;;;;;;466716;255;1443;-61
2022/01/26 13:04:33;;;;;;;;;;;21.90;27.40;;;;;;466772;255;1361;-61
2022/01/26 13:06:35;;;;;;;;;;;21.70;27.50;;;;;;466700;255;1352;-61
2022/01/26 13:08:36;;;;;;;;;;;21.70;27.60;;;;;;466786;255;1301;-61
2022/01/26 13:10:38;;;;;;;;;;;21.60;27.60;;;;;;466802;255;1087;-61
2022/01/26 13:12:39;;;;;;;;;;;21.60;27.60;;;;;;466922;255;2192;-61
2022/01/26 13:14:44;;;;;;;;;;;21.60;27.70;;;;;;466995;255;1082;-61
2022/01/26 13:16:45;;;;;;;;;;;21.60;27.70;;;;;;466621;255;1333;-61
2022/01/26 13:19:04;;;;;;;;;;;21.50;27.70;;;;;;466662;255;1769;-61
2022/01/26 13:23:28;;;;;;;;;;;21.40;27.90;;;;;;465290;255;1261;-61
2022/01/26 13:25:31;;;;;;;;;;;21.40;27.80;;;;;;466233;255;1416;-61